Time;durP1;ratioP1;P1;durP2;ratioP2;P2;SDS_P1;SDS_P2;PMS_P1;PMS_P2;Temp;Humidity;BMP_temperature;BMP_pressure;BME280_temperature;BME280_humidity;BME280_pressure;Samples;Min_cycle;Max_cycle;Signal;HPM_P1;HPM_P2
2022/05/03 00:00:19;;;;;;;16.02;11.73;;;;;;;6.89;90.49;98627.34;4226272;27;20239;-73
2022/05/03 00:02:29;;;;;;;16.23;12.15;;;;;;;6.83;90.70;98613.03;4225830;27;20139;-73
2022/05/03 00:04:39;;;;;;;14.75;10.73;;;;;;;6.83;91.38;98613.03;4225642;27;20046;-73
2022/05/03 00:07:12;;;;;;;14.07;11.15;;;;;;;6.81;90.80;98612.59;4223781;27;20469;-73
2022/05/03 00:09:22;;;;;;;13.00;10.85;;;;;;;6.75;90.88;98611.22;4223671;27;20047;-73
2022/05/03 00:11:37;;;;;;;14.13;10.45;;;;;;;6.73;90.88;98608.03;4224190;27;20075;-73
2022/05/03 00:13:50;;;;;;;14.15;11.07;;;;;;;6.74;91.05;98617.88;4223596;27;20834;-73
2022/05/03 00:15:51;;;;;;;14.88;11.10;;;;;;;6.70;92.25;98619.72;4222547;27;20040;-73
2022/05/03 00:17:53;;;;;;;12.45;10.02;;;;;;;6.63;91.97;98614.03;4222021;27;20050;-73
2022/05/03 00:19:54;;;;;;;14.10;11.30;;;;;;;6.60;91.73;98618.25;4230395;27;20443;-73
2022/05/03 00:21:55;;;;;;;15.48;11.60;;;;;;;6.55;91.98;98613.03;4221640;28;20040;-73
2022/05/03 00:23:56;;;;;;;14.45;11.30;;;;;;;6.51;92.18;98612.09;4221504;28;20035;-73
2022/05/03 00:25:57;;;;;;;16.25;12.05;;;;;;;6.42;92.82;98604.00;4222543;27;20062;-73
2022/05/03 00:27:58;;;;;;;14.85;11.88;;;;;;;6.35;92.98;98594.75;4228474;27;20483;-73
2022/05/03 00:29:59;;;;;;;17.33;10.98;;;;;;;6.34;92.95;98604.94;4221629;27;20727;-73
2022/05/03 00:32:03;;;;;;;15.32;11.93;;;;;;;6.29;93.58;98602.44;4226520;27;20219;-73
2022/05/03 00:34:05;;;;;;;14.85;10.93;;;;;;;6.31;93.17;98610.34;4230600;27;20051;-73
2022/05/03 00:36:05;;;;;;;13.75;11.35;;;;;;;6.23;94.06;98603.03;4222099;27;20020;-73
2022/05/03 00:38:06;;;;;;;14.85;12.05;;;;;;;6.28;93.86;98609.06;4229935;27;20024;-73
2022/05/03 00:40:09;;;;;;;13.13;11.05;;;;;;;6.24;93.85;98601.88;4230634;27;20047;-73
2022/05/03 00:42:12;;;;;;;12.27;10.45;;;;;;;6.20;93.36;98612.72;4219567;28;20051;-73
2022/05/03 00:46:45;;;;;;;14.93;11.23;;;;;;;6.12;92.72;98600.75;4226706;27;20139;-73
2022/05/03 00:49:01;;;;;;;12.20;10.85;;;;;;;6.17;90.71;98597.75;4221885;27;20391;-73
2022/05/03 00:51:12;;;;;;;13.82;11.10;;;;;;;6.15;89.97;98602.78;4224423;27;20397;-73
2022/05/03 00:53:26;;;;;;;15.02;11.95;;;;;;;6.07;90.89;98592.72;4221564;27;20069;-73
2022/05/03 00:55:37;;;;;;;14.10;11.68;;;;;;;6.06;91.16;98596.63;4220754;28;20035;-73
2022/05/03 00:57:59;;;;;;;13.98;11.90;;;;;;;5.99;92.60;98592.84;4226740;27;20147;-73
2022/05/03 01:00:06;;;;;;;15.55;12.77;;;;;;;5.93;93.53;98591.47;4228102;27;20065;-73
2022/05/03 01:02:08;;;;;;;16.42;12.70;;;;;;;6.01;91.75;98598.81;4220038;27;20051;-73
2022/05/03 01:04:35;;;;;;;12.68;10.40;;;;;;;6.05;89.86;98605.22;4220860;28;20019;-73
2022/05/03 01:06:55;;;;;;;16.23;11.25;;;;;;;6.10;88.85;98596.72;4221833;27;20406;-73
2022/05/03 01:09:06;;;;;;;16.08;11.35;;;;;;;6.13;88.05;98599.59;4219386;28;20056;-73
2022/05/03 01:11:09;;;;;;;14.98;11.38;;;;;;;6.13;88.00;98594.09;4225033;27;20043;-73
2022/05/03 01:13:31;;;;;;;17.17;11.57;;;;;;;6.04;88.46;98593.44;4223900;27;20075;-73
2022/05/03 01:15:37;;;;;;;14.43;11.10;;;;;;;5.88;88.90;98596.03;4224292;27;20126;-73
2022/05/03 01:17:45;;;;;;;14.23;11.82;;;;;;;5.78;89.71;98601.19;4228580;27;20035;-73
2022/05/03 01:20:06;;;;;;;15.68;12.25;;;;;;;5.68;89.84;98596.94;4220088;28;20039;-73
2022/05/03 01:22:51;;;;;;;14.25;11.70;;;;;;;5.69;89.37;98604.03;4222744;27;20637;-73
2022/05/03 01:25:11;;;;;;;18.75;11.30;;;;;;;5.64;88.92;98596.84;4220653;28;20413;-73
2022/05/03 01:27:23;;;;;;;14.38;11.63;;;;;;;5.60;89.65;98597.84;4219162;27;20035;-73
2022/05/03 01:29:34;;;;;;;15.27;11.77;;;;;;;5.55;89.11;98590.66;4226411;27;20108;-73
2022/05/03 01:31:35;;;;;;;15.05;11.55;;;;;;;5.50;89.63;98592.81;4220322;27;20407;-73
2022/05/03 01:33:43;;;;;;;15.60;11.18;;;;;;;5.47;89.72;98601.75;4220116;28;20134;-73
2022/05/03 01:35:50;;;;;;;13.25;11.68;;;;;;;5.41;89.95;98597.63;4219511;28;20047;-73
2022/05/03 01:38:05;;;;;;;16.50;12.73;;;;;;;5.33;91.13;98594.63;4223245;27;20039;-73
2022/05/03 01:40:11;;;;;;;13.93;10.98;;;;;;;5.35;90.98;98599.78;4222499;27;20556;-73
2022/05/03 01:42:26;;;;;;;16.17;12.07;;;;;;;5.31;92.22;98598.88;4220063;27;20371;-73
2022/05/03 01:44:59;;;;;;;15.60;11.52;;;;;;;5.36;91.98;98599.44;4221140;27;20817;-73
2022/05/03 01:47:17;;;;;;;14.80;11.30;;;;;;;5.38;89.35;98590.88;4219511;28;20061;-73
2022/05/03 01:52:07;;;;;;;13.85;10.95;;;;;;;5.56;89.46;98592.25;4226924;27;20054;-73
2022/05/03 01:54:39;;;;;;;14.35;10.05;;;;;;;5.59;90.12;98591.56;4218997;28;20358;-73
2022/05/03 01:57:31;;;;;;;15.07;10.35;;;;;;;5.61;89.31;98589.28;4190044;28;20043;-73
2022/05/03 01:59:48;;;;;;;11.77;9.35;;;;;;;5.63;89.29;98595.25;4183332;28;20039;-73
2022/05/03 02:01:53;;;;;;;14.07;9.45;;;;;;;5.66;88.02;98588.25;4223268;27;20126;-73
2022/05/03 02:04:06;;;;;;;14.65;9.57;;;;;;;5.66;88.39;98584.72;4222400;27;20101;-73
2022/05/03 02:06:12;;;;;;;14.23;9.48;;;;;;;5.76;87.28;98584.25;4222300;27;20052;-73
2022/05/03 02:08:22;;;;;;;13.85;9.50;;;;;;;5.80;87.75;98577.75;4225387;27;20036;-73
2022/05/03 02:10:54;;;;;;;13.10;10.18;;;;;;;5.81;88.27;98584.84;4225242;27;20130;-73
2022/05/03 02:13:11;;;;;;;11.80;9.40;;;;;;;5.75;89.74;98585.41;4214397;28;20054;-73
2022/05/03 02:15:13;;;;;;;12.43;9.65;;;;;;;5.70;92.95;98589.16;4227245;27;20039;-73
2022/05/03 02:17:31;;;;;;;14.25;10.23;;;;;;;5.61;94.56;98581.03;4221799;27;20047;-73
2022/05/03 02:19:56;;;;;;;14.43;10.30;;;;;;;5.55;94.33;98576.16;4218575;28;20471;-73
2022/05/03 02:22:15;;;;;;;14.13;10.50;;;;;;;5.49;94.11;98577.50;4219697;28;20054;-73
2022/05/03 02:24:45;;;;;;;13.55;10.02;;;;;;;5.44;92.54;98581.25;4229062;27;20482;-73
2022/05/03 02:26:56;;;;;;;15.13;9.50;;;;;;;5.31;92.09;98574.16;4213817;27;20040;-73
2022/05/03 02:29:04;;;;;;;11.90;9.27;;;;;;;5.28;91.31;98583.88;4218001;28;20263;-73
2022/05/03 02:31:09;;;;;;;15.40;9.18;;;;;;;5.23;91.44;98581.34;4224242;27;20040;-73
2022/05/03 02:33:31;;;;;;;13.45;9.55;;;;;;;5.18;92.02;98578.81;4228800;27;20047;-73
2022/05/03 02:35:34;;;;;;;15.05;10.40;;;;;;;5.10;93.40;98581.66;4219561;28;20665;-73
2022/05/03 02:37:38;;;;;;;14.60;10.40;;;;;;;5.12;94.83;98584.84;4219461;28;20202;-73
2022/05/03 02:39:47;;;;;;;15.40;11.02;;;;;;;5.06;96.14;98584.28;4218610;28;20050;-73
2022/05/03 02:41:50;;;;;;;12.10;9.15;;;;;;;5.03;95.30;98571.25;4219586;27;20108;-73
2022/05/03 02:43:51;;;;;;;14.65;10.27;;;;;;;4.93;94.51;98572.47;4219254;28;20038;-73
2022/05/03 02:46:26;;;;;;;15.23;10.48;;;;;;;4.91;95.31;98574.75;4219044;28;20659;-73
2022/05/03 02:48:38;;;;;;;12.45;9.70;;;;;;;4.90;92.93;98580.59;4210632;28;20196;-73
2022/05/03 02:50:44;;;;;;;13.00;9.45;;;;;;;4.90;93.01;98572.38;4219581;28;20330;-73
2022/05/03 02:53:00;;;;;;;11.68;9.32;;;;;;;4.88;93.32;98580.09;4219689;28;20211;-73
2022/05/03 02:55:06;;;;;;;14.88;10.65;;;;;;;4.83;94.59;98567.44;4221873;28;20093;-73
2022/05/03 02:57:19;;;;;;;16.38;10.13;;;;;;;4.91;91.82;98569.28;4218039;28;20056;-73
2022/05/03 03:02:08;;;;;;;12.68;10.25;;;;;;;4.96;89.70;98569.03;4218059;28;20386;-73
2022/05/03 03:04:39;;;;;;;13.65;10.43;;;;;;;4.87;90.39;98564.78;4218660;28;20052;-73
2022/05/03 03:06:42;;;;;;;13.38;10.00;;;;;;;4.77;92.06;98561.34;4222064;28;20036;-73
2022/05/03 03:08:44;;;;;;;14.13;9.65;;;;;;;4.71;91.63;98559.94;4218249;28;20542;-73
2022/05/03 03:11:04;;;;;;;17.05;10.52;;;;;;;4.63;91.98;98568.25;4219225;28;20048;-73
2022/05/03 03:13:31;;;;;;;13.60;10.38;;;;;;;4.50;93.67;98573.69;4219429;28;20131;-73
2022/05/03 03:15:38;;;;;;;14.35;10.25;;;;;;;4.45;94.61;98565.66;4232220;27;20047;-73
2022/05/03 03:17:46;;;;;;;14.32;10.48;;;;;;;4.36;95.18;98564.13;4218961;28;20772;-73
2022/05/03 03:19:59;;;;;;;15.00;11.07;;;;;;;4.30;95.89;98565.47;4218644;28;20085;-73
2022/05/03 03:22:03;;;;;;;15.43;11.30;;;;;;;4.27;97.89;98568.88;4218839;27;20516;-73
2022/05/03 03:24:08;;;;;;;17.00;10.68;;;;;;;4.19;98.29;98571.34;4218437;28;20036;-73
2022/05/03 03:26:10;;;;;;;13.75;11.30;;;;;;;4.19;96.52;98563.13;4221514;27;20032;-73
2022/05/03 03:28:14;;;;;;;14.70;11.05;;;;;;;4.18;95.70;98567.00;4224311;27;20047;-73
2022/05/03 03:30:16;;;;;;;17.48;11.32;;;;;;;4.09;95.56;98563.53;4218181;28;20034;-73
2022/05/03 03:32:17;;;;;;;13.77;11.05;;;;;;;4.07;95.97;98573.22;4228848;27;20106;-73
2022/05/03 03:34:20;;;;;;;13.05;10.25;;;;;;;4.03;96.04;98564.88;4221640;27;20130;-73
2022/05/03 03:36:23;;;;;;;18.13;10.98;;;;;;;4.01;95.31;98571.81;4218784;27;20059;-73
2022/05/03 03:38:30;;;;;;;13.40;11.13;;;;;;;3.93;96.09;98568.78;4217872;28;20088;-73
2022/05/03 03:40:30;;;;;;;17.02;11.13;;;;;;;3.94;96.33;98578.59;4218845;28;20063;-73
2022/05/03 03:42:31;;;;;;;15.00;11.43;;;;;;;3.92;95.65;98561.72;4223125;28;20054;-73
2022/05/03 03:44:32;;;;;;;14.52;10.65;;;;;;;4.00;93.61;98567.47;4221890;27;20040;-73
2022/05/03 03:46:33;;;;;;;13.77;10.73;;;;;;;4.12;92.83;98568.34;4225655;27;20039;-73
2022/05/03 03:48:33;;;;;;;14.25;10.98;;;;;;;4.10;92.48;98567.88;4222397;27;20494;-73
2022/05/03 03:50:37;;;;;;;16.35;12.07;;;;;;;4.07;93.94;98565.03;4222025;28;20195;-73
2022/05/03 03:52:39;;;;;;;13.80;10.93;;;;;;;4.04;95.14;98563.72;4220998;28;20078;-73
2022/05/03 03:54:40;;;;;;;15.43;11.50;;;;;;;4.04;94.53;98568.41;4222237;28;20444;-73
2022/05/03 03:56:41;;;;;;;16.02;11.20;;;;;;;4.02;94.64;98570.69;4228165;27;20031;-73
2022/05/03 03:58:41;;;;;;;16.85;11.32;;;;;;;3.95;94.40;98580.22;4221100;27;20044;-73
2022/05/03 04:00:42;;;;;;;16.48;11.57;;;;;;;4.00;95.36;98581.97;4232562;27;20078;-73
2022/05/03 04:02:44;;;;;;;13.52;10.57;;;;;;;4.04;93.75;98573.88;4222885;27;20524;-72
2022/05/03 04:04:44;;;;;;;15.52;11.77;;;;;;;4.05;93.54;98575.47;4221485;27;20130;-73
2022/05/03 04:06:45;;;;;;;15.45;11.07;;;;;;;4.12;92.87;98568.34;4225105;27;20605;-73
2022/05/03 04:08:45;;;;;;;19.92;12.10;;;;;;;4.18;93.47;98575.22;4221354;28;20147;-73
2022/05/03 04:10:45;;;;;;;17.55;11.57;;;;;;;4.16;94.75;98576.72;4227376;27;20065;-73
2022/05/03 04:12:46;;;;;;;18.05;12.13;;;;;;;4.09;94.87;98581.91;4221995;27;20043;-73
2022/05/03 04:14:47;;;;;;;19.48;12.02;;;;;;;3.97;95.52;98582.63;4221813;28;20411;-73
2022/05/03 04:16:48;;;;;;;18.17;12.07;;;;;;;3.93;95.96;98587.16;4222073;27;20645;-73
2022/05/03 04:18:48;;;;;;;18.75;12.07;;;;;;;3.93;95.58;98581.69;4232571;27;20073;-73
2022/05/03 04:20:48;;;;;;;15.13;11.50;;;;;;;3.99;95.00;98587.78;4220830;27;20058;-73
2022/05/03 04:22:49;;;;;;;15.80;11.90;;;;;;;4.05;94.31;98591.91;4221627;27;20040;-73
2022/05/03 04:24:49;;;;;;;17.30;11.50;;;;;;;4.02;94.94;98585.16;4221979;27;20245;-73
2022/05/03 04:26:50;;;;;;;16.13;11.18;;;;;;;4.04;95.90;98591.09;4220782;27;20375;-73
2022/05/03 04:28:50;;;;;;;20.33;12.32;;;;;;;4.05;95.77;98592.72;4220827;28;20039;-72
2022/05/03 04:30:50;;;;;;;16.77;10.77;;;;;;;4.08;95.18;98572.91;4221674;28;20039;-73
2022/05/03 04:32:50;;;;;;;14.30;10.57;;;;;;;4.10;93.89;98597.19;4225158;27;20047;-73
2022/05/03 04:34:51;;;;;;;18.48;11.35;;;;;;;4.07;94.95;98600.63;4221491;27;20909;-73
2022/05/03 04:36:52;;;;;;;15.82;11.55;;;;;;;4.08;95.04;98603.00;4220742;28;20155;-73
2022/05/03 04:38:53;;;;;;;14.85;11.05;;;;;;;4.15;94.56;98599.75;4219482;27;20040;-73
2022/05/03 04:41:02;;;;;;;17.60;12.18;;;;;;;4.26;93.01;98595.47;4223437;27;20579;-72
2022/05/03 04:43:03;;;;;;;16.73;11.20;;;;;;;4.36;92.18;98595.06;4221812;27;20123;-73
2022/05/03 04:45:03;;;;;;;16.80;11.75;;;;;;;4.38;92.60;98581.03;4221419;27;20532;-73
2022/05/03 04:47:04;;;;;;;16.65;11.38;;;;;;;4.36;92.85;98589.59;4221251;27;20116;-73
2022/05/03 04:49:04;;;;;;;15.35;10.75;;;;;;;4.38;93.42;98594.72;4221144;27;20291;-73
2022/05/03 04:51:05;;;;;;;18.90;11.00;;;;;;;4.39;94.31;98599.91;4222991;27;20047;-72
2022/05/03 04:53:05;;;;;;;20.95;13.55;;;;;;;4.48;92.11;98602.56;4220068;27;20040;-72
2022/05/03 04:55:06;;;;;;;21.85;12.00;;;;;;;4.59;91.23;98614.72;4132746;27;20049;-72
2022/05/03 04:57:07;;;;;;;19.27;13.68;;;;;;;4.64;92.13;98611.00;4225914;27;20502;-73
2022/05/03 04:59:07;;;;;;;20.35;14.80;;;;;;;4.70;92.67;98617.84;4220192;27;20089;-73
2022/05/03 05:01:08;;;;;;;19.05;15.50;;;;;;;4.73;91.48;98617.19;4224508;27;20040;-73
2022/05/03 05:03:08;;;;;;;24.27;14.38;;;;;;;4.81;91.02;98613.56;4224369;27;20162;-72
2022/05/03 05:05:09;;;;;;;18.58;14.02;;;;;;;4.90;90.47;98602.53;4220907;27;20043;-72
2022/05/03 05:07:10;;;;;;;20.52;13.73;;;;;;;4.98;90.37;98612.59;4227568;27;20365;-72
2022/05/03 05:09:10;;;;;;;16.13;12.05;;;;;;;5.03;91.11;98610.44;4223362;27;20048;-73
2022/05/03 05:11:11;;;;;;;17.52;11.35;;;;;;;5.06;92.16;98608.97;4223702;27;20433;-72
2022/05/03 05:13:11;;;;;;;15.73;11.13;;;;;;;5.09;93.15;98608.28;4224266;27;20044;-73
2022/05/03 05:15:12;;;;;;;17.92;12.23;;;;;;;5.16;93.45;98616.78;4221350;27;20047;-73
2022/05/03 05:17:12;;;;;;;27.02;11.32;;;;;;;5.21;90.93;98621.22;4221571;27;20040;-73
2022/05/03 05:19:12;;;;;;;18.92;12.20;;;;;;;5.27;91.59;98620.66;4224618;27;20047;-73
2022/05/03 05:21:13;;;;;;;22.00;12.95;;;;;;;5.35;92.09;98628.00;4224080;27;20500;-72
2022/05/03 05:23:13;;;;;;;20.10;12.82;;;;;;;5.42;93.48;98624.72;4225706;27;20032;-73
2022/05/03 05:25:13;;;;;;;16.73;12.18;;;;;;;5.51;93.00;98630.91;4160623;27;20627;-72
2022/05/03 05:27:14;;;;;;;23.75;11.77;;;;;;;5.58;92.39;98628.41;4221597;27;20108;-72
2022/05/03 05:29:14;;;;;;;16.38;11.13;;;;;;;5.66;90.06;98618.47;4222052;27;20035;-72
2022/05/03 05:31:15;;;;;;;17.10;11.80;;;;;;;5.77;90.56;98619.59;4224295;27;20472;-73
2022/05/03 05:33:15;;;;;;;19.25;12.07;;;;;;;5.87;90.54;98627.38;4223224;27;20044;-73
2022/05/03 05:35:16;;;;;;;17.60;11.82;;;;;;;5.95;90.13;98627.63;4220951;27;20048;-72
2022/05/03 05:37:16;;;;;;;17.95;12.02;;;;;;;6.09;89.85;98633.59;4220885;27;20059;-73
2022/05/03 05:39:16;;;;;;;18.50;11.48;;;;;;;6.17;89.64;98629.91;4217740;27;20251;-73
2022/05/03 05:41:17;;;;;;;27.30;14.15;;;;;;;6.27;90.00;98632.19;4223707;27;20104;-72
2022/05/03 05:43:18;;;;;;;20.60;13.25;;;;;;;6.37;90.06;98639.16;4222922;27;20042;-73
2022/05/03 05:45:18;;;;;;;18.77;13.25;;;;;;;6.44;87.81;98636.63;4224714;27;20039;-73
2022/05/03 05:47:19;;;;;;;22.67;15.40;;;;;;;6.53;87.65;98631.00;4223761;27;20506;-73
2022/05/03 05:49:19;;;;;;;24.10;16.27;;;;;;;6.64;86.92;98635.69;4222542;27;20443;-72
2022/05/03 05:51:19;;;;;;;24.55;15.38;;;;;;;6.74;87.96;98632.44;4222239;27;20115;-73
2022/05/03 05:53:32;;;;;;;20.10;13.82;;;;;;;6.86;88.33;98639.81;4223147;27;20069;-73
2022/05/03 05:55:32;;;;;;;18.50;13.68;;;;;;;6.95;88.88;98636.94;4222101;27;20175;-72
2022/05/03 05:57:32;;;;;;;16.50;11.95;;;;;;;7.09;91.08;98645.59;4223399;27;20038;-73
2022/05/03 05:59:33;;;;;;;16.30;12.23;;;;;;;7.25;91.70;98643.66;4223277;27;20084;-73
2022/05/03 06:01:38;;;;;;;16.30;11.45;;;;;;;7.36;90.51;98643.94;4223756;27;20084;-72
2022/05/03 06:03:40;;;;;;;18.02;12.18;;;;;;;7.43;89.12;98649.66;4222175;27;20517;-73
2022/05/03 06:05:40;;;;;;;16.95;11.95;;;;;;;7.50;89.49;98649.03;4219260;27;20039;-73
2022/05/03 06:07:41;;;;;;;20.88;12.75;;;;;;;7.64;91.32;98648.63;4223939;27;20046;-72
2022/05/03 06:09:43;;;;;;;20.70;13.15;;;;;;;7.76;91.28;98654.84;4218476;27;20050;-73
2022/05/03 06:11:43;;;;;;;15.98;12.98;;;;;;;7.87;91.23;98647.66;4220556;27;20089;-73
2022/05/03 06:13:43;;;;;;;16.38;13.45;;;;;;;7.99;90.98;98648.72;4217650;27;20379;-73
2022/05/03 06:15:44;;;;;;;20.95;14.10;;;;;;;8.14;91.72;98648.69;4221249;27;20309;-73
2022/05/03 06:17:44;;;;;;;20.35;14.30;;;;;;;8.27;91.07;98643.06;4222021;27;20043;-73
2022/05/03 06:19:45;;;;;;;22.85;13.52;;;;;;;8.37;90.35;98645.31;4222888;27;20056;-73
2022/05/03 06:21:46;;;;;;;19.05;13.13;;;;;;;8.49;88.36;98638.88;4225057;27;20178;-72
2022/05/03 06:23:46;;;;;;;20.42;14.23;;;;;;;8.59;86.48;98644.63;4222480;27;20087;-72
2022/05/03 06:25:47;;;;;;;15.93;13.82;;;;;;;8.71;83.77;98644.50;4216876;27;20040;-73
2022/05/03 06:27:47;;;;;;;18.40;14.30;;;;;;;8.87;86.04;98644.44;4220614;27;20677;-73
2022/05/03 06:29:47;;;;;;;35.92;15.32;;;;;;;9.02;85.68;98642.78;4220835;27;20039;-73
2022/05/03 06:31:48;;;;;;;20.70;14.02;;;;;;;9.18;85.88;98645.44;4219380;28;20051;-73
2022/05/03 06:33:48;;;;;;;23.00;15.63;;;;;;;9.34;85.74;98659.16;4216445;27;20058;-73
2022/05/03 06:35:49;;;;;;;16.90;13.55;;;;;;;9.43;84.72;98652.25;4218314;27;20049;-73
2022/05/03 06:37:49;;;;;;;18.73;13.40;;;;;;;9.56;82.63;98656.44;4221301;27;20354;-73
2022/05/03 06:39:49;;;;;;;18.25;14.02;;;;;;;9.62;81.85;98654.16;4221453;27;20035;-73
2022/05/03 06:41:50;;;;;;;15.77;13.00;;;;;;;9.56;82.90;98645.38;4217235;27;20069;-73
2022/05/03 06:43:50;;;;;;;18.90;13.30;;;;;;;9.60;82.76;98647.38;4220477;27;20060;-73
2022/05/03 06:45:52;;;;;;;16.42;13.40;;;;;;;9.61;82.12;98657.31;4220284;27;20870;-73
2022/05/03 06:47:52;;;;;;;19.92;15.20;;;;;;;9.68;82.67;98649.13;4219072;28;20035;-73
2022/05/03 06:49:53;;;;;;;20.58;14.77;;;;;;;9.78;82.70;98656.81;4218558;28;20559;-73
2022/05/03 06:51:53;;;;;;;16.95;13.57;;;;;;;9.83;82.02;98649.00;4219594;28;20071;-72
2022/05/03 06:53:54;;;;;;;16.48;13.05;;;;;;;10.04;82.82;98656.06;4219445;28;20047;-73
2022/05/03 06:55:54;;;;;;;20.40;14.23;;;;;;;10.23;81.34;98660.72;4223622;28;20039;-73
2022/05/03 06:57:55;;;;;;;20.98;13.73;;;;;;;10.35;79.55;98666.06;4219434;28;20040;-73
2022/05/03 06:59:56;;;;;;;18.73;14.23;;;;;;;10.32;78.57;98667.59;4219159;28;20048;-73
2022/05/03 07:01:56;;;;;;;16.83;13.00;;;;;;;10.36;80.26;98665.69;4217962;28;20375;-73
2022/05/03 07:03:57;;;;;;;17.83;13.18;;;;;;;10.41;78.12;98656.28;4223556;28;20040;-73
2022/05/03 07:05:57;;;;;;;18.48;12.90;;;;;;;10.47;79.26;98665.84;4219295;28;20262;-73
2022/05/03 07:07:58;;;;;;;15.77;12.43;;;;;;;10.47;78.91;98665.84;4219181;28;20493;-73
2022/05/03 07:09:59;;;;;;;16.85;13.07;;;;;;;10.50;79.35;98672.59;4222321;28;20533;-73
2022/05/03 07:12:00;;;;;;;15.02;12.35;;;;;;;10.58;79.39;98661.25;4214731;28;20066;-73
2022/05/03 07:14:00;;;;;;;15.35;12.50;;;;;;;10.67;78.63;98667.34;4220192;27;20419;-73
2022/05/03 07:16:00;;;;;;;16.10;13.20;;;;;;;10.73;78.65;98664.22;4223671;28;20082;-73
2022/05/03 07:22:46;;;;;;;16.63;13.68;;;;;;;11.18;78.12;98664.03;4222958;28;20324;-74
2022/05/03 07:24:46;;;;;;;18.70;12.80;;;;;;;11.24;77.73;98668.06;4223070;28;20439;-74
2022/05/03 07:26:46;;;;;;;17.63;12.50;;;;;;;11.24;77.64;98665.28;4235179;27;20043;-74
2022/05/03 07:28:50;;;;;;;19.75;14.13;;;;;;;11.45;79.32;98673.06;4222175;27;20130;-74
2022/05/03 07:30:50;;;;;;;17.98;13.45;;;;;;;11.49;76.56;98673.06;4222409;28;20051;-74
2022/05/03 07:32:50;;;;;;;17.95;12.63;;;;;;;11.62;77.69;98673.63;4222788;28;20039;-74
2022/05/03 07:34:52;;;;;;;18.67;12.85;;;;;;;11.67;76.34;98665.78;4222970;27;20048;-74
2022/05/03 07:36:52;;;;;;;19.25;13.32;;;;;;;11.71;75.02;98672.13;4222777;28;20085;-74
2022/05/03 07:38:52;;;;;;;17.27;13.65;;;;;;;11.80;75.20;98671.84;4221945;27;20047;-74
2022/05/03 07:40:54;;;;;;;17.95;13.23;;;;;;;11.97;75.89;98679.53;4228035;27;20502;-74
2022/05/03 07:42:54;;;;;;;19.23;13.95;;;;;;;12.09;76.03;98684.81;4222947;28;20491;-74
2022/05/03 07:44:54;;;;;;;18.50;13.52;;;;;;;12.24;75.36;98679.34;4221647;27;20133;-74
2022/05/03 07:46:55;;;;;;;16.88;13.27;;;;;;;12.15;72.25;98676.13;4224759;27;20047;-74
2022/05/03 07:48:56;;;;;;;18.98;13.82;;;;;;;12.18;72.69;98678.94;4225150;27;20097;-74
2022/05/03 07:50:56;;;;;;;15.55;12.90;;;;;;;12.25;74.35;98684.53;4224861;27;20059;-73
2022/05/03 07:52:57;;;;;;;22.95;13.75;;;;;;;12.31;73.89;98684.97;4221722;28;20479;-74
2022/05/03 07:54:58;;;;;;;16.73;12.93;;;;;;;12.34;70.91;98692.53;4221798;28;20348;-74
2022/05/03 07:56:59;;;;;;;17.35;13.10;;;;;;;12.31;70.66;98685.75;4221991;27;20039;-74
2022/05/03 07:58:59;;;;;;;15.15;12.00;;;;;;;12.28;69.01;98686.53;4223199;27;20127;-74
2022/05/03 08:00:59;;;;;;;19.88;13.32;;;;;;;12.38;71.57;98688.59;4222097;28;20350;-74
2022/05/03 08:03:00;;;;;;;20.60;13.13;;;;;;;12.48;71.54;98698.19;4222495;28;20036;-74
2022/05/03 08:05:00;;;;;;;20.30;13.60;;;;;;;12.50;70.39;98693.06;4230358;27;20117;-74
2022/05/03 08:07:00;;;;;;;18.98;14.00;;;;;;;12.59;69.87;98699.06;4233487;27;20040;-74
2022/05/03 08:09:01;;;;;;;19.30;14.43;;;;;;;12.54;70.57;98688.31;4225468;27;20498;-74
2022/05/03 08:11:02;;;;;;;23.42;15.23;;;;;;;12.63;71.95;98691.53;4222692;27;20039;-74
2022/05/03 08:13:02;;;;;;;18.75;13.77;;;;;;;12.70;71.39;98698.34;4222354;28;20035;-74
2022/05/03 08:15:04;;;;;;;21.58;13.95;;;;;;;12.72;69.98;98696.75;4221748;27;20039;-74
2022/05/03 08:17:04;;;;;;;16.83;13.57;;;;;;;12.55;69.13;98701.00;4221167;27;20036;-74
2022/05/03 08:19:05;;;;;;;20.52;13.50;;;;;;;12.68;70.36;98700.72;4220393;28;20100;-74
2022/05/03 08:21:05;;;;;;;17.55;13.20;;;;;;;12.75;70.23;98700.75;4221985;27;20127;-74
2022/05/03 08:23:07;;;;;;;18.65;13.45;;;;;;;12.78;70.85;98700.78;4222451;28;20059;-74
2022/05/03 08:25:08;;;;;;;17.70;13.95;;;;;;;12.79;70.59;98707.91;4219094;27;20092;-74
2022/05/03 08:27:08;;;;;;;18.02;13.60;;;;;;;12.91;69.67;98701.25;4226029;27;20040;-74
2022/05/03 08:29:09;;;;;;;19.58;14.18;;;;;;;12.96;70.52;98705.63;4225170;27;20456;-74
2022/05/03 08:31:09;;;;;;;18.08;13.68;;;;;;;12.92;67.72;98700.84;4222116;28;20441;-74
2022/05/03 08:33:10;;;;;;;18.15;14.15;;;;;;;12.97;67.33;98701.66;4221454;28;20361;-74
2022/05/03 08:35:10;;;;;;;18.80;13.93;;;;;;;13.06;70.76;98702.09;4221939;27;20510;-74
2022/05/03 08:42:07;;;;;;;18.27;13.88;;;;;;;13.05;67.60;98715.19;4221769;28;20510;-74
2022/05/03 08:44:08;;;;;;;22.83;13.98;;;;;;;13.21;68.30;98712.94;4220910;28;20040;-74
2022/05/03 08:46:09;;;;;;;18.77;12.90;;;;;;;13.09;64.15;98713.25;4221688;27;20039;-74
2022/05/03 08:48:11;;;;;;;19.30;12.98;;;;;;;13.19;65.14;98706.16;4230996;27;20042;-74
2022/05/03 08:50:12;;;;;;;16.60;12.45;;;;;;;13.35;67.42;98705.84;4220171;27;20031;-74
2022/05/03 08:52:16;;;;;;;17.80;12.55;;;;;;;13.57;66.79;98710.31;4223193;27;20023;-74
2022/05/03 08:54:17;;;;;;;16.58;12.45;;;;;;;13.61;64.16;98713.88;4220690;27;20134;-74
2022/05/03 08:56:18;;;;;;;19.17;12.98;;;;;;;13.69;63.45;98712.72;4221740;28;20047;-74
2022/05/03 08:58:19;;;;;;;20.63;12.80;;;;;;;13.77;66.05;98716.31;4222158;27;20452;-74
2022/05/03 09:00:20;;;;;;;16.90;12.38;;;;;;;13.84;62.55;98713.56;4221348;27;20066;-74
2022/05/03 09:02:20;;;;;;;16.42;11.75;;;;;;;13.92;64.81;98712.38;4230193;27;21076;-74
2022/05/03 09:04:21;;;;;;;18.95;12.95;;;;;;;13.98;62.17;98710.81;4226249;27;20042;-74
2022/05/03 09:06:40;;;;;;;24.85;12.65;;;;;;;14.08;62.63;98711.22;4222672;27;20503;-74
2022/05/03 09:08:40;;;;;;;15.57;11.68;;;;;;;14.11;62.19;98710.41;4220912;28;20282;-74
2022/05/03 09:10:42;;;;;;;17.77;12.75;;;;;;;14.07;60.41;98721.53;4223825;27;20392;-74
2022/05/03 09:12:44;;;;;;;17.92;12.60;;;;;;;14.13;61.40;98719.16;4229642;27;20039;-74
2022/05/03 09:14:44;;;;;;;16.35;12.05;;;;;;;14.15;61.71;98712.03;4227384;27;20292;-74
2022/05/03 09:16:51;;;;;;;16.90;11.68;;;;;;;14.17;62.19;98704.06;4224676;27;20047;-75
2022/05/03 09:18:51;;;;;;;16.27;12.52;;;;;;;14.25;62.75;98713.22;4223567;27;20051;-74
2022/05/03 09:25:37;;;;;;;18.60;12.75;;;;;;;14.24;62.28;98704.06;4222063;27;20086;-74
2022/05/03 09:27:37;;;;;;;16.10;12.30;;;;;;;14.24;61.53;98700.50;4224099;27;20162;-74
2022/05/03 09:29:57;;;;;;;16.27;13.43;;;;;;;14.27;59.77;98696.91;4231345;27;20519;-74
2022/05/03 09:31:58;;;;;;;15.88;12.90;;;;;;;14.27;59.80;98705.25;4223256;27;20044;-74
2022/05/03 09:34:01;;;;;;;14.45;12.45;;;;;;;14.08;59.49;98703.66;4224144;27;20103;-74
2022/05/03 09:36:08;;;;;;;15.98;12.10;;;;;;;14.20;60.53;98702.47;4221391;27;20043;-74
2022/05/03 09:38:08;;;;;;;14.13;11.85;;;;;;;14.34;61.23;98702.47;4220119;28;20035;-74
2022/05/03 09:40:12;;;;;;;15.10;11.38;;;;;;;14.51;61.61;98700.91;4218696;28;20375;-74
2022/05/03 09:42:17;;;;;;;16.80;12.50;;;;;;;14.70;60.96;98705.25;4225491;27;20360;-74
2022/05/03 09:44:17;;;;;;;15.70;12.80;;;;;;;14.77;59.24;98706.03;4220520;28;20024;-74
2022/05/03 09:46:18;;;;;;;15.20;12.60;;;;;;;14.57;57.58;98702.09;4220291;28;20059;-74
2022/05/03 09:48:18;;;;;;;18.55;12.93;;;;;;;14.41;58.64;98696.91;4219725;27;20475;-74
2022/05/03 09:50:37;;;;;;;15.95;12.50;;;;;;;14.55;59.25;98699.69;4225415;27;20023;-74
2022/05/03 09:52:39;;;;;;;14.90;12.40;;;;;;;14.55;57.84;98699.69;4224783;27;20205;-74
2022/05/03 09:54:49;;;;;;;15.53;12.70;;;;;;;14.67;58.52;98701.28;4220670;28;20054;-74
2022/05/03 09:56:53;;;;;;;15.98;12.35;;;;;;;14.72;58.45;98700.88;4225948;27;20276;-74
2022/05/03 09:59:07;;;;;;;17.63;12.35;;;;;;;14.59;58.20;98706.06;4218743;28;20471;-73
2022/05/03 10:01:08;;;;;;;17.75;13.07;;;;;;;14.55;59.46;98696.13;4220056;27;20043;-74